Terminal Aerodrome Forecast
Issued by NWS Melbourne, FL

Home | Current Version | Previous Version | Text Only | Print | Product List | Glossary On
Versions: 1 2 3 4 5 6 7 8 9 10 11 12 13 14 15 16 17 18 19
190
FTUS42 KMLB 281740
TAFVRB
TAF
KVRB 281740Z 2818/2918 05010KT P6SM VCSH SCT025 BKN035 BKN250
     FM282200 08009KT P6SM SCT035 BKN250
     FM290300 07003KT P6SM FEW025 SCT250
     FM291400 07008KT P6SM SCT025 SCT250=

USA.gov is the U.S. government's official web portal to all federal, state and local government web resources and services.